• Join FlightAware (Why Join?)
  • Login
  • US Flag 
04:23AM EST


 

Airport Tracker/Info


-or-


 

Live Flight TrackerFlight Track Log ✈ SCX106 ✈ 05-May-2013 ✈ KLAS - KMSP

Flight Track Log - Related Links

Times and Time Zones

All times are in EDT time to prevent confusion due to time zone crossing. See the SCX106 flight status page for this flight to view local times or setup timezone preferences in your user account.

Time Position Orientation Groundspeed Altitude Reporting Facility
EDT Latitude Longitude Course Direction KTS MPH feet Rate Location/Type
09:08PM 36.0770 -115.1290 87° East 178 205 2,600  Level FlightAware
09:09PM 36.0780 -115.1130 86° East 174 200 3,400 2,100 Climbing FlightAware
09:09PM 36.0770 -115.0870 93° East 199 229 4,000 1,620 Climbing FlightAware
09:10PM 36.0750 -115.0500 94° East 230 265 4,900 1,800 Climbing FlightAware
09:10PM 36.0760 -115.0080 88° East 258 297 5,800 2,100 Climbing FlightAware
09:10PM 36.0760 -114.9930 90° East 262 302 6,300 2,100 Climbing FlightAware
09:11PM 36.0780 -114.9460 87° East 280 322 7,200 2,160 Climbing FlightAware
09:11PM 36.0850 -114.8990 80° East 284 327 8,500 2,820 Climbing FlightAware
09:12PM 36.0920 -114.8570 78° East 288 331 9,800 2,040 Climbing FlightAware
09:12PM 36.1050 -114.7830 78° East 325 374 10,900 1,800 Climbing FlightAware
09:13PM 36.1180 -114.7050 78° East 351 404 12,400 2,520 Climbing FlightAware
09:14PM 36.1330 -114.6160 78° East 357 411 14,500 2,400 Climbing FlightAware
09:14PM 36.1470 -114.5320 78° East 378 435 15,800 1,860 Climbing FlightAware
09:15PM 36.1610 -114.4450 79° East 400 460 17,000 2,040 Climbing FlightAware
09:16PM 36.1780 -114.3450 78° East 407 468 18,700 2,400 Climbing FlightAware
09:17PM 36.1940 -114.2530 78° East 410 472 20,400 2,400 Climbing FlightAware
09:17PM 36.2100 -114.1600 78° East 414 476 21,900 2,100 Climbing FlightAware
09:18PM 36.2280 -114.0550 78° East 424 488 23,400 1,800 Climbing FlightAware
09:19PM 36.2460 -113.9600 77° East 433 498 24,500 1,620 Climbing FlightAware
09:19PM 36.2900 -113.8640 60° Northeast 449 517 25,700 1,440 Climbing FlightAware
09:20PM 36.3400 -113.7790 54° Northeast 458 527 26,600 1,440 Climbing FlightAware
09:21PM 36.3970 -113.6790 55° Northeast 464 534 27,800 1,440 Climbing FlightAware
09:21PM 36.4450 -113.5960 54° Northeast 466 536 28,700 1,320 Climbing FlightAware
09:22PM 36.4940 -113.5100 55° Northeast 470 541 29,600 1,260 Climbing FlightAware
09:23PM 36.5500 -113.4110 55° Northeast 477 549 30,500 1,260 Climbing FlightAware
09:24PM 36.6040 -113.3170 54° Northeast 477 549 31,400 1,200 Climbing FlightAware
09:24PM 36.6610 -113.2170 55° Northeast 483 556 32,200 1,020 Climbing FlightAware
09:25PM 36.7120 -113.1280 54° Northeast 486 559 32,900 1,200 Climbing FlightAware
09:26PM 36.7640 -113.0350 55° Northeast 486 559 33,800 1,320 Climbing FlightAware
09:26PM 36.8210 -112.9330 55° Northeast 482 555 34,800 1,260 Climbing FlightAware
09:27PM 36.8710 -112.8430 55° Northeast 482 555 35,600 960 Climbing FlightAware
09:28PM 36.9330 -112.7330 55° Northeast 486 559 36,200 720 Climbing FlightAware
09:28PM 36.9840 -112.6420 55° Northeast 487 560 36,700 600 Climbing FlightAware
09:29PM 37.0360 -112.5480 55° Northeast 485 558 37,000 180 Climbing FlightAware
09:30PM 37.0930 -112.4470 55° Northeast 483 556 37,000  Level FlightAware
09:31PM 37.1430 -112.3570 55° Northeast 483 556 37,000  Level FlightAware
09:31PM 37.1970 -112.2580 56° Northeast 483 556 37,000  Level FlightAware
09:32PM 37.2410 -112.1800 55° Northeast 483 556 37,000  Level FlightAware
09:33PM 37.2850 -112.1020 55° Northeast 483 556 37,000  Level FlightAware
09:33PM 37.3280 -112.0240 55° Northeast 483 556 37,000  Level FlightAware
09:34PM 37.3720 -111.9460 55° Northeast 483 556 37,000  Level FlightAware
09:35PM 37.4260 -111.8480 55° Northeast 483 556 37,000  Level FlightAware
09:35PM 37.4700 -111.7690 55° Northeast 483 556 37,000  Level FlightAware
09:36PM 37.5130 -111.6910 55° Northeast 483 556 37,000  Level FlightAware
09:37PM 37.5570 -111.6120 55° Northeast 483 556 37,000  Level FlightAware
09:37PM 37.6010 -111.5340 55° Northeast 483 556 37,000  Level FlightAware
09:38PM 37.6440 -111.4550 55° Northeast 483 556 37,000  Level FlightAware
09:39PM 37.6990 -111.3570 55° Northeast 483 556 37,000  Level FlightAware
09:40PM 37.7420 -111.2780 55° Northeast 483 556 37,000  Level FlightAware
09:40PM 37.7860 -111.1990 55° Northeast 483 556 37,000  Level FlightAware
09:42PM 37.9870 -110.7980 57° Northeast 484 557 37,000  Level FlightAware
09:42PM 38.0290 -110.7160 57° Northeast 484 557 37,000  Level FlightAware
09:43PM 38.0880 -110.6040 56° Northeast 484 557 37,000  Level FlightAware
09:44PM 38.1450 -110.4960 56° Northeast 482 555 37,000  Level FlightAware
09:45PM 38.1940 -110.4020 56° Northeast 482 555 37,000  Level FlightAware
09:45PM 38.2370 -110.3200 56° Northeast 481 554 37,000  Level FlightAware
09:46PM 38.2970 -110.2030 57° Northeast 482 555 37,000  Level FlightAware
09:47PM 38.3470 -110.1070 56° Northeast 481 554 37,000  Level FlightAware
09:47PM 38.4000 -110.0050 56° Northeast 480 552 37,000  Level FlightAware
09:48PM 38.4510 -109.9060 57° Northeast 480 552 37,000  Level FlightAware
09:49PM 38.5040 -109.8030 57° Northeast 478 550 37,000  Level FlightAware
09:49PM 38.5540 -109.7060 57° Northeast 477 549 37,000  Level FlightAware
09:50PM 38.6160 -109.5830 57° Northeast 476 548 37,000  Level FlightAware
09:51PM 38.6680 -109.4810 57° Northeast 475 547 37,000  Level FlightAware
09:52PM 38.7280 -109.3630 57° Northeast 476 548 37,000  Level FlightAware
09:52PM 38.7620 -109.2950 57° Northeast 475 547 37,000  Level FlightAware
09:53PM 38.8230 -109.1740 57° Northeast 476 548 37,000  Level FlightAware
09:54PM 38.8770 -109.0670 57° Northeast 475 547 37,000  Level FlightAware
09:55PM 38.9230 -108.9740 58° Northeast 474 545 37,000  Level FlightAware
09:55PM 38.9640 -108.8930 57° Northeast 474 545 37,000  Level FlightAware
09:56PM 39.0240 -108.7720 57° Northeast 473 544 37,000  Level FlightAware
09:57PM 39.0710 -108.6770 57° Northeast 471 542 37,000  Level FlightAware
09:57PM 39.1240 -108.5710 57° Northeast 471 542 37,000  Level FlightAware
09:58PM 39.1690 -108.4780 58° Northeast 469 540 37,000  Level FlightAware
09:59PM 39.2100 -108.3940 58° Northeast 472 543 37,000  Level FlightAware
09:59PM 39.2570 -108.2990 57° Northeast 472 543 37,000  Level FlightAware
10:00PM 39.3030 -108.2050 58° Northeast 471 542 37,000  Level FlightAware
10:01PM 39.3660 -108.0760 58° Northeast 470 541 37,000  Level FlightAware
10:02PM 39.4140 -107.9770 58° Northeast 470 541 37,000  Level FlightAware
10:02PM 39.4580 -107.8840 58° Northeast 470 541 37,000  Level FlightAware
10:03PM 39.5330 -107.7290 58° Northeast 468 539 37,000  Level FlightAware
10:04PM 39.5910 -107.6070 58° Northeast 469 540 37,000  Level FlightAware
10:05PM 39.6320 -107.5220 58° Northeast 469 540 37,000  Level FlightAware
10:06PM 39.6880 -107.4060 58° Northeast 472 543 37,000  Level FlightAware
10:06PM 39.7293 -107.3180 59° Northeast 475 547 37,000  Level FlightAware ADS-B
10:07PM 39.7648 -107.2430 58° Northeast 475 547 37,000  Level FlightAware ADS-B
10:07PM 39.7999 -107.1690 58° Northeast 475 547 37,000  Level FlightAware ADS-B
10:08PM 39.8349 -107.0950 58° Northeast 473 544 37,000  Level FlightAware ADS-B
10:08PM 39.8693 -107.0220 58° Northeast 472 543 37,000  Level FlightAware ADS-B
10:09PM 39.9037 -106.9480 59° Northeast 469 540 37,000  Level FlightAware ADS-B
10:09PM 39.9506 -106.8480 59° Northeast 468 539 37,000  Level FlightAware ADS-B
10:10PM 40.0014 -106.7380 59° Northeast 467 537 37,000  Level FlightAware ADS-B
10:11PM 40.0692 -106.5930 59° Northeast 468 539 37,000  Level FlightAware ADS-B
10:12PM 40.1134 -106.4970 59° Northeast 469 540 37,000  Level FlightAware ADS-B
10:12PM 40.1473 -106.4240 59° Northeast 470 541 37,000  Level FlightAware ADS-B
10:13PM 40.1940 -106.3220 59° Northeast 471 542 37,000  Level FlightAware ADS-B
10:14PM 40.2317 -106.2400 59° Northeast 473 544 37,000  Level FlightAware ADS-B
10:14PM 40.2663 -106.1640 59° Northeast 474 545 37,000  Level FlightAware ADS-B
10:15PM 40.3027 -106.0840 59° Northeast 474 545 37,000  Level FlightAware ADS-B
10:15PM 40.3480 -105.9850 59° Northeast 474 545 37,000  Level FlightAware
10:16PM 40.3839 -105.9060 59° Northeast 475 547 37,000  Level FlightAware ADS-B
10:16PM 40.4200 -105.8260 59° Northeast 477 549 37,000  Level FlightAware ADS-B
10:17PM 40.4830 -105.6870 59° Northeast 479 551 37,000  Level FlightAware
10:18PM 40.5017 -105.6450 60° Northeast 480 552 37,000  Level FlightAware ADS-B
10:18PM 40.5483 -105.5400 60° Northeast 482 555 37,000  Level FlightAware ADS-B
10:19PM 40.5828 -105.4630 59° Northeast 483 556 37,000  Level FlightAware ADS-B
10:19PM 40.6173 -105.3850 60° Northeast 483 556 37,000  Level FlightAware ADS-B
10:20PM 40.6584 -105.2930 59° Northeast 484 557 37,000  Level FlightAware ADS-B
10:21PM 40.6984 -105.2030 60° Northeast 485 558 37,000  Level FlightAware ADS-B
10:21PM 40.7331 -105.1250 60° Northeast 484 557 37,000  Level FlightAware ADS-B
10:22PM 40.7672 -105.0480 60° Northeast 484 557 37,000  Level FlightAware ADS-B
10:22PM 40.8012 -104.9710 60° Northeast 484 557 37,000  Level FlightAware ADS-B
10:23PM 40.8351 -104.8940 60° Northeast 484 557 37,000  Level FlightAware ADS-B
10:23PM 40.8694 -104.8150 60° Northeast 483 556 37,000  Level FlightAware ADS-B
10:24PM 40.9043 -104.7350 60° Northeast 482 555 37,000  Level FlightAware ADS-B
10:24PM 40.9379 -104.6580 60° Northeast 480 552 37,000  Level FlightAware ADS-B
10:25PM 40.9710 -104.5810 60° Northeast 479 551 37,000  Level FlightAware ADS-B
10:25PM 41.0061 -104.5000 60° Northeast 477 549 37,000 240 Level FlightAware ADS-B
10:26PM 41.0395 -104.4240 60° Northeast 479 551 37,300 1,560 Climbing FlightAware ADS-B
10:26PM 41.0752 -104.3410 60° Northeast 455 524 38,700 1,560 Climbing FlightAware ADS-B
10:27PM 41.1067 -104.2670 61° Northeast 454 522 39,000 240 Climbing FlightAware ADS-B
10:27PM 41.1427 -104.1830 60° Northeast 459 528 39,000  Level FlightAware ADS-B
10:28PM 41.1747 -104.1080 60° Northeast 463 533 39,000  Level FlightAware ADS-B
10:28PM 41.1924 -104.0270 74° East 467 537 39,000  Level FlightAware ADS-B
10:29PM 41.2412 -103.9530 49° Northeast 467 537 39,000  Level FlightAware ADS-B
10:29PM 41.2742 -103.8750 61° Northeast 468 539 39,000  Level FlightAware ADS-B
10:30PM 41.3061 -103.8000 60° Northeast 467 537 39,000  Level FlightAware ADS-B
10:30PM 41.3390 -103.7210 61° Northeast 469 540 39,000  Level FlightAware ADS-B
10:31PM 41.3698 -103.6480 61° Northeast 469 540 39,000  Level FlightAware ADS-B
10:31PM 41.4015 -103.5720 61° Northeast 470 541 39,000  Level FlightAware ADS-B
10:32PM 41.4335 -103.4960 61° Northeast 470 541 39,000  Level FlightAware ADS-B
10:32PM 41.4652 -103.4200 61° Northeast 471 542 39,000  Level FlightAware ADS-B
10:33PM 41.5002 -103.3360 61° Northeast 472 543 39,000  Level FlightAware ADS-B
10:33PM 41.5323 -103.2590 61° Northeast 472 543 39,000  Level FlightAware ADS-B
10:34PM 41.5659 -103.1770 61° Northeast 473 544 39,000  Level FlightAware ADS-B
10:35PM 41.6008 -103.0930 61° Northeast 471 542 39,000  Level FlightAware ADS-B
10:35PM 41.6372 -103.0050 61° Northeast 471 542 39,000  Level FlightAware ADS-B
10:36PM 41.6690 -102.9280 61° Northeast 469 540 39,000  Level FlightAware ADS-B
10:36PM 41.7036 -102.8430 61° Northeast 469 540 39,000  Level FlightAware ADS-B
10:37PM 41.7350 -102.7660 61° Northeast 469 540 39,000  Level FlightAware ADS-B
10:37PM 41.7678 -102.6860 61° Northeast 468 539 39,000  Level FlightAware ADS-B
10:38PM 41.8066 -102.5900 62° Northeast 467 537 39,000  Level FlightAware ADS-B
10:38PM 41.8379 -102.5130 61° Northeast 466 536 39,000  Level FlightAware ADS-B
10:39PM 41.8691 -102.4360 61° Northeast 466 536 39,000  Level FlightAware ADS-B
10:39PM 41.9060 -102.3460 61° Northeast 466 536 39,000  Level FlightAware ADS-B
10:40PM 41.9367 -102.2690 62° Northeast 468 539 39,000  Level FlightAware ADS-B
10:41PM 41.9908 -102.1340 62° Northeast 468 539 39,000  Level FlightAware ADS-B
10:41PM 42.0217 -102.0560 62° Northeast 469 540 39,000  Level FlightAware ADS-B
10:42PM 42.0521 -101.9780 62° Northeast 469 540 39,000  Level FlightAware ADS-B
10:43PM 42.1375 -101.7640 62° Northeast 469 540 39,000  Level FlightAware ADS-B
10:44PM 42.1622 -101.7006 62° Northeast 470 541 39,000  Level Minneapolis Center
10:44PM 42.1947 -101.6181 62° Northeast 470 541 39,000  Level Denver Center
10:46PM 42.2622 -101.4447 62° Northeast 468 539 39,000  Level Denver Center
10:47PM 42.3300 -101.2719 62° Northeast 467 537 39,000  Level Denver Center
10:48PM 42.3964 -101.0994 62° Northeast 464 534 39,000  Level Denver Center
10:49PM 42.4522 -100.9531 63° Northeast 459 528 39,000  Level Denver Center
10:50PM 42.5175 -100.7844 62° Northeast 454 522 39,000  Level Denver Center
10:51PM 42.5739 -100.6342 63° Northeast 462 532 39,000  Level Denver Center
10:52PM 42.6294 -100.4881 63° Northeast 458 527 39,000  Level Denver Center
10:53PM 42.6944 -100.3144 63° Northeast 460 529 39,000  Level Denver Center
10:54PM 42.7478 -100.1714 63° Northeast 459 528 39,000  Level Denver Center
10:55PM 42.8172 -99.9847 63° Northeast 461 531 39,000  Level Denver Center
10:56PM 42.8742 -99.8289 63° Northeast 461 531 39,000  Level Denver Center
10:57PM 42.9425 -99.6436 63° Northeast 458 527 39,000  Level Denver Center
10:58PM 42.9989 -99.4889 63° Northeast 457 526 39,000  Level Denver Center
10:59PM 43.0550 -99.3336 64° Northeast 457 526 39,000  Level Denver Center
11:00PM 43.1197 -99.1581 63° Northeast 457 526 39,000  Level Minneapolis Center
11:01PM 43.1875 -98.9686 64° Northeast 450 518 39,000  Level Minneapolis Center
11:02PM 43.2431 -98.8147 64° Northeast 451 519 39,000  Level Minneapolis Center
11:08PM 43.5510 -97.9070 64° Northeast 457 526 39,000  Level FlightAware
11:09PM 43.5910 -97.7840 66° East 455 524 39,000  Level FlightAware
11:10PM 43.6210 -97.6930 65° Northeast 452 520 39,000  Level FlightAware
11:11PM 43.6770 -97.5190 66° East 451 519 39,000  Level FlightAware
11:11PM 43.7110 -97.4150 66° East 451 519 39,000  Level FlightAware
11:12PM 43.7440 -97.3110 66° East 451 519 39,000  Level FlightAware
11:13PM 43.7810 -97.1940 66° East 451 519 39,000  Level FlightAware
11:13PM 43.8140 -97.0900 66° East 452 520 39,000  Level FlightAware
11:14PM 43.8530 -96.9680 66° East 453 521 39,000  Level FlightAware
11:15PM 43.8870 -96.8600 66° East 453 521 39,000  Level FlightAware
11:16PM 43.9310 -96.7180 67° East 454 522 39,000  Level FlightAware
11:16PM 43.9650 -96.6100 66° East 454 522 39,000  Level FlightAware
11:17PM 44.0010 -96.4930 67° East 454 522 39,000  Level FlightAware
11:18PM 44.0350 -96.3830 67° East 452 520 39,000  Level FlightAware
11:19PM 44.0710 -96.2690 66° East 448 516 39,000  Level FlightAware
11:19PM 44.1050 -96.1570 67° East 448 516 39,000  Level FlightAware
11:20PM 44.1410 -96.0380 67° East 447 514 39,000 -600 Level FlightAware
11:21PM 44.1690 -95.9440 67° East 441 507 38,200 -1,980 Descending FlightAware
11:21PM 44.2040 -95.8300 67° East 440 506 36,400 -2,700 Descending FlightAware
11:22PM 44.2400 -95.7090 67° East 447 514 34,200 -2,940 Descending FlightAware
11:23PM 44.2720 -95.6030 67° East 447 514 32,300 -2,580 Descending FlightAware
11:23PM 44.3060 -95.4860 68° East 438 504 30,600 -2,280 Descending FlightAware
11:24PM 44.3370 -95.3840 67° East 431 496 29,100 -2,280 Descending FlightAware
11:25PM 44.3670 -95.2820 68° East 423 487 27,600 -2,280 Descending FlightAware
11:26PM 44.4010 -95.1660 68° East 413 475 25,900 -2,220 Descending FlightAware
11:26PM 44.4300 -95.0700 67° East 406 467 24,500 -2,100 Descending FlightAware
11:27PM 44.4610 -94.9630 68° East 396 456 23,000 -2,100 Descending FlightAware
11:28PM 44.4880 -94.8690 68° East 388 447 21,600 -2,100 Descending FlightAware
11:28PM 44.5190 -94.7640 67° East 379 436 20,100 -1,980 Descending FlightAware
11:29PM 44.5450 -94.6730 68° East 371 427 18,800 -1,980 Descending FlightAware
11:30PM 44.5700 -94.5850 68° East 363 418 17,500 -1,980 Descending FlightAware
11:30PM 44.5950 -94.4990 68° East 357 411 16,200 -2,160 Descending FlightAware
11:31PM 44.6220 -94.4040 68° East 356 410 14,500 -2,160 Descending FlightAware
11:32PM 44.6500 -94.3060 68° East 347 399 13,000 -1,920 Descending FlightAware
11:33PM 44.6740 -94.2240 68° East 340 391 11,800 -1,680 Descending FlightAware
11:33PM 44.6960 -94.1430 69° East 328 377 10,800 -660 Descending FlightAware
11:34PM 44.7160 -94.0540 72° East 323 372 10,900 -120 Climbing FlightAware
11:35PM 44.7410 -93.9770 65° Northeast 323 372 10,700 -600 Descending FlightAware
11:35PM 44.7760 -93.9130 52° Northeast 301 346 10,100 -900 Descending FlightAware
11:36PM 44.7890 -93.8880 54° Northeast 290 334 9,900 -840 Descending FlightAware
11:36PM 44.8120 -93.8440 54° Northeast 278 320 9,500 -1,140 Descending FlightAware
11:37PM 44.8350 -93.8010 53° Northeast 274 315 8,800 -1,320 Descending FlightAware
11:37PM 44.8540 -93.7670 52° Northeast 272 313 8,300 -1,200 Descending FlightAware
11:37PM 44.8770 -93.7240 53° Northeast 269 310 7,700 -1,380 Descending FlightAware
11:38PM 44.8880 -93.7030 54° Northeast 269 310 7,300 -1,200 Descending FlightAware
11:38PM 44.9050 -93.6690 55° Northeast 265 305 6,900 -780 Descending FlightAware
11:38PM 44.9170 -93.6470 52° Northeast 251 289 6,800 -420 Descending FlightAware
11:39PM 44.9370 -93.6100 53° Northeast 237 273 6,600 -660 Descending FlightAware
11:39PM 44.9530 -93.5810 52° Northeast 233 268 6,200 -1,080 Descending FlightAware
11:40PM 44.9670 -93.5670 35° Northeast 229 264 5,900 -1,080 Descending FlightAware
11:40PM 44.9950 -93.5440 30° Northeast 230 265 5,400 -1,020 Descending FlightAware
11:40PM 45.0150 -93.5240 35° Northeast 226 260 5,000 -1,080 Descending FlightAware
11:41PM 45.0200 -93.5050 70° East 223 257 4,700 -1,200 Descending FlightAware
11:41PM 45.0020 -93.4700 126° Southeast 221 254 4,100 -1,140 Descending FlightAware
11:42PM 44.9830 -93.4470 139° Southeast 221 254 3,700 -1,020 Descending FlightAware
11:42PM 44.9650 -93.4130 127° Southeast 215 247 3,200 -900 Descending FlightAware
11:43PM 44.9520 -93.3820 121° Southeast 213 245 2,900 -660 Descending FlightAware
11:43PM 44.9380 -93.3500 122° Southeast 189 217 2,600 -780 Descending FlightAware
11:43PM 44.9270 -93.3250 122° Southeast 168 193 2,200 -1,080 Descending FlightAware
11:44PM 44.9210 -93.3100 119° Southeast 161 185 1,900 -960 Descending FlightAware
11:44PM 44.9090 -93.2840 123° Southeast 153 176 1,500 -780 Descending FlightAware
11:45PM 44.9010 -93.2640 119° Southeast 150 173 1,200 -780 Descending FlightAware
11:45PM 44.8890 -93.2380 123° Southeast 151 174 800 -840 Descending FlightAware